Time;durP1;ratioP1;P1;durP2;ratioP2;P2;SDS_P1;SDS_P2;PMS_P1;PMS_P2;Temp;Humidity;BMP_temperature;BMP_pressure;BME280_temperature;BME280_humidity;BME280_pressure;Samples;Min_cycle;Max_cycle;Signal;HPM_P1;HPM_P2
2023/12/03 00:02:04;;;;;;;37.30;20.77;;;0.90;93.50;;;;;;5073681;28;20036;-48
2023/12/03 00:04:31;;;;;;;46.30;25.38;;;0.90;93.50;;;;;;5059375;28;20043;-52
2023/12/03 00:07:01;;;;;;;39.22;23.00;;;0.90;93.50;;;;;;5058932;28;20481;-51
2023/12/03 00:09:27;;;;;;;38.92;22.33;;;0.80;93.40;;;;;;5076780;28;20107;-49
2023/12/03 00:11:54;;;;;;;43.08;26.08;;;0.80;93.40;;;;;;5076397;28;20043;-55
2023/12/03 00:14:22;;;;;;;42.45;22.52;;;0.90;93.50;;;;;;5076850;28;20039;-53
2023/12/03 00:16:48;;;;;;;43.67;24.90;;;0.90;93.50;;;;;;5076499;28;20547;-54
2023/12/03 00:19:14;;;;;;;42.47;24.85;;;0.90;93.50;;;;;;5076390;28;20489;-52
2023/12/03 00:21:42;;;;;;;42.00;24.77;;;0.90;93.50;;;;;;5076497;28;20032;-53
2023/12/03 00:24:09;;;;;;;39.35;22.33;;;0.90;93.50;;;;;;5071541;28;20039;-53
2023/12/03 00:26:36;;;;;;;43.05;23.10;;;0.90;93.50;;;;;;5096799;28;20464;-50
2023/12/03 00:29:07;;;;;;;41.17;24.45;;;0.90;93.50;;;;;;5078702;28;20548;-53
2023/12/03 00:31:40;;;;;;;42.05;24.02;;;0.90;93.50;;;;;;5082039;28;20024;-51
2023/12/03 00:34:05;;;;;;;40.75;23.88;;;0.90;93.50;;;;;;5076300;28;20433;-53
2023/12/03 00:36:33;;;;;;;41.47;24.40;;;0.90;93.50;;;;;;5058764;28;20094;-49
2023/12/03 00:39:01;;;;;;;45.35;25.20;;;0.90;93.50;;;;;;5076163;28;20100;-55
2023/12/03 00:41:30;;;;;;;40.67;24.85;;;0.90;93.50;;;;;;5076007;28;20425;-51
2023/12/03 00:43:58;;;;;;;43.67;26.40;;;0.90;93.50;;;;;;5075708;28;20036;-51
2023/12/03 00:46:26;;;;;;;44.78;25.67;;;0.90;93.50;;;;;;5076596;28;20033;-51
2023/12/03 00:48:54;;;;;;;47.17;26.15;;;0.90;93.50;;;;;;5076147;28;20100;-53
2023/12/03 00:51:23;;;;;;;43.72;24.45;;;0.90;93.50;;;;;;5075873;28;20024;-49
2023/12/03 00:53:50;;;;;;;36.55;22.75;;;0.90;93.50;;;;;;5075993;28;20100;-49
2023/12/03 00:56:18;;;;;;;42.00;23.88;;;0.90;93.50;;;;;;5076131;28;20041;-52
2023/12/03 00:58:47;;;;;;;39.30;22.70;;;0.90;93.50;;;;;;5075742;28;20432;-51
2023/12/03 01:01:15;;;;;;;43.55;23.70;;;0.90;93.50;;;;;;5075399;28;20082;-48
2023/12/03 01:03:41;;;;;;;40.83;21.73;;;0.90;93.50;;;;;;5091142;28;20755;-50
2023/12/03 01:06:08;;;;;;;44.38;25.65;;;0.90;93.50;;;;;;5085612;28;20033;-51
2023/12/03 01:08:34;;;;;;;40.53;23.02;;;0.90;93.60;;;;;;5075443;28;20032;-52
2023/12/03 01:11:04;;;;;;;46.75;25.25;;;0.90;93.60;;;;;;5075683;28;20054;-52
2023/12/03 01:13:36;;;;;;;52.92;28.08;;;0.90;93.40;;;;;;5057955;28;20025;-53
2023/12/03 01:16:02;;;;;;;45.42;27.85;;;0.90;93.40;;;;;;5075362;28;20032;-49
2023/12/03 01:18:32;;;;;;;59.00;33.85;;;0.90;93.50;;;;;;5075381;28;20052;-49
2023/12/03 01:21:04;;;;;;;61.10;32.53;;;0.90;93.40;;;;;;5074920;28;20052;-52
2023/12/03 01:23:30;;;;;;;55.00;29.25;;;0.80;93.30;;;;;;5077705;28;20027;-48
2023/12/03 01:25:56;;;;;;;59.40;28.48;;;0.80;93.40;;;;;;5095672;28;20396;-53
2023/12/03 01:28:22;;;;;;;58.45;27.92;;;0.90;93.50;;;;;;5073364;28;20082;-52
2023/12/03 01:30:50;;;;;;;50.70;26.90;;;0.90;93.60;;;;;;5057385;28;20036;-52
2023/12/03 01:33:19;;;;;;;50.35;26.38;;;0.90;93.60;;;;;;5074883;28;20569;-52
2023/12/03 01:35:47;;;;;;;53.08;30.08;;;0.90;93.60;;;;;;5075477;28;20472;-54
2023/12/03 01:38:15;;;;;;;44.08;24.08;;;0.90;93.50;;;;;;5075328;28;20036;-51
2023/12/03 01:40:54;;;;;;;52.92;25.95;;;0.90;93.50;;;;;;5074499;28;20033;-50
2023/12/03 01:43:20;;;;;;;42.08;24.45;;;0.90;93.60;;;;;;5074559;28;20090;-50
2023/12/03 01:45:49;;;;;;;45.65;25.45;;;0.90;93.60;;;;;;5056862;28;20417;-52
2023/12/03 01:48:20;;;;;;;49.67;26.52;;;0.90;93.60;;;;;;5074985;28;20094;-55
2023/12/03 01:50:49;;;;;;;52.67;27.15;;;0.90;93.70;;;;;;5062659;28;20035;-51
2023/12/03 01:53:17;;;;;;;46.50;24.73;;;0.90;93.60;;;;;;5057361;28;20052;-55
2023/12/03 01:55:54;;;;;;;43.83;25.92;;;0.90;93.60;;;;;;5040820;28;20580;-54
2023/12/03 01:58:22;;;;;;;47.13;26.13;;;0.90;93.60;;;;;;5058857;28;20526;-51
2023/12/03 02:00:47;;;;;;;56.10;27.42;;;0.80;93.60;;;;;;5074042;28;20389;-51
2023/12/03 02:03:14;;;;;;;57.40;27.65;;;0.90;93.70;;;;;;5056965;28;20450;-51
2023/12/03 02:05:40;;;;;;;54.53;27.92;;;0.90;93.80;;;;;;5074577;28;20029;-54
2023/12/03 02:08:08;;;;;;;60.65;28.42;;;0.90;93.70;;;;;;5074789;28;20025;-56
2023/12/03 02:10:36;;;;;;;50.30;27.30;;;0.80;93.70;;;;;;5074177;28;20133;-56
2023/12/03 02:13:03;;;;;;;56.15;28.40;;;0.90;93.70;;;;;;5074316;28;20029;-56
2023/12/03 02:15:32;;;;;;;53.17;27.88;;;0.80;93.50;;;;;;5074548;28;20024;-56
2023/12/03 02:17:58;;;;;;;61.58;30.13;;;0.80;93.60;;;;;;5074945;28;20052;-55
2023/12/03 02:20:25;;;;;;;44.08;23.65;;;0.70;93.50;;;;;;5073437;28;20044;-52
2023/12/03 02:23:02;;;;;;;51.83;27.02;;;0.70;93.50;;;;;;5076596;28;20024;-52
2023/12/03 02:25:29;;;;;;;55.15;25.50;;;0.70;93.50;;;;;;5074414;28;20024;-56
2023/12/03 02:27:57;;;;;;;53.03;27.58;;;0.70;93.40;;;;;;5056481;28;20035;-55
2023/12/03 02:30:23;;;;;;;50.10;23.80;;;0.70;93.40;;;;;;5073934;28;20032;-56
2023/12/03 02:32:53;;;;;;;51.95;27.05;;;0.60;93.30;;;;;;5073897;28;20028;-52
2023/12/03 02:35:22;;;;;;;46.20;24.85;;;0.60;93.20;;;;;;5073890;28;20108;-56
2023/12/03 02:37:49;;;;;;;53.72;26.63;;;0.50;93.20;;;;;;5074061;28;20081;-54
2023/12/03 02:40:15;;;;;;;49.55;24.45;;;0.50;93.00;;;;;;5072962;28;20507;-53
2023/12/03 02:42:42;;;;;;;51.05;27.20;;;0.40;93.00;;;;;;5073830;28;20082;-56
2023/12/03 02:45:12;;;;;;;51.30;27.08;;;0.40;92.90;;;;;;5073615;28;20085;-55
2023/12/03 02:47:39;;;;;;;45.25;24.60;;;0.30;93.00;;;;;;5073662;28;20070;-55
2023/12/03 02:50:08;;;;;;;43.78;24.80;;;0.30;92.90;;;;;;5073656;28;20413;-56
2023/12/03 02:52:34;;;;;;;42.75;22.45;;;0.30;92.80;;;;;;5073690;28;20028;-54
2023/12/03 02:55:04;;;;;;;39.92;22.95;;;0.30;92.80;;;;;;5073688;28;20028;-55
2023/12/03 02:57:32;;;;;;;41.72;22.67;;;0.20;92.70;;;;;;5073424;28;20033;-53
2023/12/03 02:59:59;;;;;;;43.22;23.73;;;0.20;92.60;;;;;;5070795;28;20805;-55
2023/12/03 03:02:25;;;;;;;38.55;20.70;;;0.20;92.50;;;;;;5072854;28;20462;-56
2023/12/03 03:04:52;;;;;;;40.45;21.83;;;0.20;92.60;;;;;;5073421;28;20389;-55
2023/12/03 03:07:19;;;;;;;48.25;24.75;;;0.10;92.50;;;;;;5073426;28;20024;-55
2023/12/03 03:09:46;;;;;;;47.30;24.02;;;0.10;92.50;;;;;;5073275;28;20089;-54
2023/12/03 03:12:13;;;;;;;46.97;24.10;;;0.00;92.40;;;;;;5055689;28;20029;-55
2023/12/03 03:14:40;;;;;;;40.08;22.70;;;0.00;92.40;;;;;;5060137;28;20028;-55
2023/12/03 03:17:07;;;;;;;44.92;22.85;;;0.00;92.40;;;;;;5073472;28;20060;-53
2023/12/03 03:19:35;;;;;;;38.38;23.02;;;0.00;92.40;;;;;;5072855;28;20055;-55
2023/12/03 03:22:02;;;;;;;44.97;23.73;;;0.00;92.30;;;;;;5073197;28;20025;-55
2023/12/03 03:24:30;;;;;;;43.17;21.52;;;0.00;92.30;;;;;;5075051;28;20031;-55
2023/12/03 03:26:57;;;;;;;36.97;21.17;;;0.00;92.30;;;;;;5087612;28;20024;-53
2023/12/03 03:29:25;;;;;;;37.83;21.85;;;0.00;92.20;;;;;;5072598;28;20020;-52
2023/12/03 03:31:53;;;;;;;40.55;22.55;;;0.00;92.10;;;;;;5067562;28;20028;-53
2023/12/03 03:34:19;;;;;;;37.83;21.23;;;0.00;91.90;;;;;;5072808;28;20024;-50
2023/12/03 03:36:45;;;;;;;44.65;23.98;;;-3276.70;91.70;;;;;;5073043;28;20085;-52
2023/12/03 03:39:13;;;;;;;38.65;21.63;;;0.00;91.90;;;;;;5072442;28;20028;-53
2023/12/03 03:41:41;;;;;;;44.38;22.73;;;-3276.70;91.70;;;;;;5072204;28;20029;-51
2023/12/03 03:44:06;;;;;;;40.67;22.75;;;-3276.70;91.60;;;;;;5072759;28;20043;-53
2023/12/03 03:46:32;;;;;;;39.35;20.23;;;-3276.60;91.60;;;;;;5072643;28;20024;-50
2023/12/03 03:49:00;;;;;;;40.42;20.13;;;-3276.60;91.50;;;;;;5072674;28;20017;-52
2023/12/03 03:51:28;;;;;;;36.55;20.00;;;-3276.60;91.30;;;;;;5055586;28;20031;-52
2023/12/03 03:53:54;;;;;;;39.42;22.10;;;-3276.50;91.20;;;;;;5072756;28;20040;-48
2023/12/03 03:56:22;;;;;;;32.50;19.13;;;-3276.50;91.30;;;;;;5072715;28;20048;-48
2023/12/03 03:58:48;;;;;;;38.47;20.80;;;-3276.50;91.20;;;;;;5072760;28;20036;-48
2023/12/03 04:01:16;;;;;;;37.90;19.38;;;-3276.50;91.30;;;;;;5072818;28;20020;-48
2023/12/03 04:03:42;;;;;;;35.08;20.13;;;-3276.40;90.90;;;;;;5072757;28;20029;-49
2023/12/03 04:06:09;;;;;;;40.03;21.95;;;-3276.30;90.90;;;;;;5055172;28;20036;-47
2023/12/03 04:08:38;;;;;;;39.17;21.67;;;-3276.30;90.90;;;;;;5054884;28;20143;-53
2023/12/03 04:11:07;;;;;;;41.13;21.17;;;-3276.30;91.00;;;;;;5055067;28;20039;-49
2023/12/03 04:13:33;;;;;;;38.58;20.92;;;-3276.30;91.00;;;;;;5072767;28;20032;-53
2023/12/03 04:16:02;;;;;;;37.35;20.48;;;-3276.30;91.10;;;;;;5072926;28;20428;-47
2023/12/03 04:18:31;;;;;;;42.28;21.52;;;-3276.30;91.00;;;;;;5101529;28;20048;-49
2023/12/03 04:20:58;;;;;;;44.35;20.83;;;-3276.30;91.00;;;;;;5113436;28;20088;-48
2023/12/03 04:23:24;;;;;;;37.45;19.70;;;-3276.20;90.90;;;;;;5088149;28;20036;-47
2023/12/03 04:25:51;;;;;;;43.88;20.52;;;-3276.20;91.00;;;;;;5073067;28;20024;-48
2023/12/03 04:28:20;;;;;;;36.97;18.45;;;-3276.10;90.70;;;;;;5072488;28;20032;-47
2023/12/03 04:30:48;;;;;;;36.20;19.60;;;-3276.20;91.10;;;;;;5072614;28;20012;-49
2023/12/03 04:33:14;;;;;;;35.13;17.40;;;-3276.10;90.90;;;;;;5075217;28;20047;-51
2023/12/03 04:35:39;;;;;;;32.38;18.33;;;-3276.10;91.00;;;;;;5092685;28;20036;-48
2023/12/03 04:38:06;;;;;;;31.40;16.75;;;-3276.20;91.20;;;;;;5092577;28;20028;-46
2023/12/03 04:40:32;;;;;;;32.60;16.75;;;-3276.20;91.10;;;;;;5074792;28;20497;-45
2023/12/03 04:43:00;;;;;;;30.88;17.63;;;-3276.20;91.20;;;;;;5074876;28;20111;-49
2023/12/03 04:45:27;;;;;;;27.35;17.00;;;-3276.20;91.20;;;;;;5094885;28;20031;-45
2023/12/03 04:47:57;;;;;;;29.42;16.90;;;-3276.20;91.10;;;;;;5077728;28;20020;-49
2023/12/03 04:50:26;;;;;;;28.95;17.05;;;-3276.20;91.20;;;;;;5095149;28;20051;-46
2023/12/03 04:52:53;;;;;;;33.25;18.27;;;-3276.30;91.20;;;;;;5070161;28;20019;-47
2023/12/03 04:55:22;;;;;;;32.97;17.80;;;-3276.30;91.20;;;;;;5092793;28;20086;-46
2023/12/03 04:57:47;;;;;;;30.92;18.00;;;-3276.30;91.10;;;;;;5078290;28;20025;-45
2023/12/03 05:00:15;;;;;;;31.05;18.40;;;-3276.30;91.20;;;;;;5096164;28;20085;-47
2023/12/03 05:02:43;;;;;;;25.58;14.55;;;-3276.30;91.40;;;;;;5085027;28;20033;-46
2023/12/03 05:05:15;;;;;;;27.17;16.77;;;-3276.30;91.30;;;;;;5075993;28;20039;-49
2023/12/03 05:07:42;;;;;;;30.30;18.55;;;-3276.30;91.30;;;;;;5075935;28;20016;-47
2023/12/03 05:10:11;;;;;;;28.40;18.35;;;-3276.30;91.20;;;;;;5075412;28;20020;-46
2023/12/03 05:12:38;;;;;;;26.15;14.75;;;-3276.30;91.30;;;;;;5075946;28;20035;-49
2023/12/03 05:15:05;;;;;;;30.85;17.52;;;-3276.30;91.30;;;;;;5076637;28;20111;-45
2023/12/03 05:17:32;;;;;;;32.25;18.05;;;-3276.30;91.10;;;;;;5093782;28;20077;-47
2023/12/03 05:20:01;;;;;;;33.05;16.52;;;-3276.30;91.00;;;;;;5074003;28;20554;-48
2023/12/03 05:22:28;;;;;;;30.30;17.92;;;-3276.30;91.10;;;;;;5092273;28;20606;-51
2023/12/03 05:24:56;;;;;;;26.70;16.48;;;-3276.20;91.00;;;;;;5092717;28;20028;-51
2023/12/03 05:27:23;;;;;;;33.08;19.15;;;-3276.30;91.00;;;;;;5092356;28;20095;-45
2023/12/03 05:29:50;;;;;;;35.35;19.15;;;-3276.30;91.10;;;;;;5094468;28;20461;-47
2023/12/03 05:32:16;;;;;;;42.22;22.35;;;-3276.30;91.00;;;;;;5095773;28;20417;-46
2023/12/03 05:34:47;;;;;;;51.85;24.02;;;-3276.20;91.00;;;;;;5080286;28;20346;-46
2023/12/03 05:37:14;;;;;;;45.63;21.33;;;-3276.20;91.00;;;;;;5075339;28;20123;-47
2023/12/03 05:39:44;;;;;;;42.90;22.80;;;-3276.20;91.10;;;;;;5057313;28;20036;-46
2023/12/03 05:42:09;;;;;;;43.35;21.70;;;-3276.20;91.10;;;;;;5089305;28;20028;-47
2023/12/03 05:44:35;;;;;;;42.85;21.73;;;-3276.20;91.10;;;;;;5055021;28;20382;-47
2023/12/03 05:47:03;;;;;;;40.50;21.17;;;-3276.20;91.30;;;;;;5088943;28;20473;-50
2023/12/03 05:49:39;;;;;;;52.92;20.40;;;-3276.10;91.10;;;;;;5094149;28;20021;-47
2023/12/03 05:52:06;;;;;;;46.90;19.63;;;-3276.10;91.00;;;;;;5074782;28;20033;-49
2023/12/03 05:54:33;;;;;;;44.35;22.17;;;-3276.10;91.20;;;;;;5076059;28;20040;-50
2023/12/03 05:57:03;;;;;;;45.85;21.08;;;-3276.10;91.20;;;;;;5075637;28;20043;-48
2023/12/03 05:59:35;;;;;;;49.30;23.15;;;-3276.10;91.20;;;;;;5076883;28;20062;-48
2023/12/03 06:02:04;;;;;;;48.20;25.23;;;-3276.00;91.10;;;;;;5087091;28;20024;-47
2023/12/03 06:04:33;;;;;;;44.50;23.13;;;-3276.10;91.20;;;;;;5091889;28;20736;-47
2023/12/03 06:06:58;;;;;;;38.80;18.85;;;-3276.00;91.10;;;;;;5089333;28;20062;-51
2023/12/03 06:09:26;;;;;;;31.50;16.13;;;-3276.00;91.00;;;;;;5087329;28;20060;-48
2023/12/03 06:11:52;;;;;;;30.63;17.85;;;-3276.00;91.00;;;;;;5081634;28;20024;-50
2023/12/03 06:14:18;;;;;;;23.23;14.68;;;-3276.00;91.10;;;;;;5089107;28;20043;-53
2023/12/03 06:16:48;;;;;;;29.48;17.48;;;-3276.00;91.10;;;;;;5092882;28;20036;-48
2023/12/03 06:19:13;;;;;;;25.67;15.77;;;-3276.00;91.30;;;;;;5091089;28;20044;-50
2023/12/03 06:21:40;;;;;;;28.17;16.55;;;-3276.00;91.20;;;;;;5094415;28;20531;-49
2023/12/03 06:24:08;;;;;;;29.65;17.80;;;-3276.00;91.30;;;;;;5081258;28;20047;-50
2023/12/03 06:26:36;;;;;;;31.77;18.92;;;-3276.00;91.20;;;;;;5091504;28;20020;-48
2023/12/03 06:29:04;;;;;;;33.35;19.95;;;-3276.00;91.10;;;;;;5093133;28;20460;-49
2023/12/03 06:31:32;;;;;;;27.83;16.95;;;-3276.00;91.10;;;;;;5085497;28;20114;-49
2023/12/03 06:34:00;;;;;;;27.00;16.23;;;-3275.90;91.00;;;;;;5073630;28;20067;-52
2023/12/03 06:36:28;;;;;;;26.52;16.60;;;-3275.90;91.10;;;;;;5048458;28;20044;-51
2023/12/03 06:38:55;;;;;;;28.30;15.40;;;-3275.90;91.00;;;;;;5090978;28;20448;-53
2023/12/03 06:41:22;;;;;;;29.75;16.08;;;-3276.00;91.30;;;;;;5075205;28;20475;-53
2023/12/03 06:43:51;;;;;;;30.70;17.42;;;-3276.00;91.30;;;;;;5087754;28;20499;-53
2023/12/03 06:46:18;;;;;;;25.88;16.33;;;-3276.00;91.20;;;;;;5090830;28;20032;-55
2023/12/03 06:48:44;;;;;;;22.88;13.65;;;-3275.90;90.80;;;;;;5075013;28;20032;-53
2023/12/03 06:51:15;;;;;;;23.02;15.52;;;-3275.80;90.70;;;;;;5086538;28;20021;-52
2023/12/03 06:53:42;;;;;;;24.73;15.27;;;-3275.70;90.50;;;;;;5092582;28;20051;-52
2023/12/03 06:56:11;;;;;;;28.10;18.25;;;-3275.60;90.60;;;;;;5091855;28;20345;-53
2023/12/03 06:58:39;;;;;;;34.83;19.13;;;-3275.60;90.50;;;;;;5094239;28;20093;-52
2023/12/03 07:01:08;;;;;;;22.20;15.30;;;-3275.40;90.50;;;;;;5090754;28;20296;-53
2023/12/03 07:03:36;;;;;;;30.67;18.70;;;-3275.40;90.60;;;;;;5083251;28;20029;-54
2023/12/03 07:06:02;;;;;;;26.70;16.77;;;-3275.30;91.10;;;;;;5073426;28;20024;-54
2023/12/03 07:08:30;;;;;;;29.63;15.57;;;-3275.40;91.30;;;;;;5073156;28;20451;-55
2023/12/03 07:10:58;;;;;;;27.30;16.88;;;-3275.40;91.50;;;;;;5084857;28;20038;-54
2023/12/03 07:13:29;;;;;;;28.92;17.70;;;-3275.50;91.80;;;;;;5091810;28;20125;-51
2023/12/03 07:15:58;;;;;;;33.28;19.75;;;-3275.50;92.10;;;;;;5110503;28;20028;-56
2023/12/03 07:18:25;;;;;;;29.02;18.08;;;-3275.60;92.20;;;;;;5096585;28;20056;-51
2023/12/03 07:20:51;;;;;;;33.30;20.58;;;-3275.70;92.40;;;;;;5072450;28;20036;-53
2023/12/03 07:23:22;;;;;;;36.55;21.20;;;-3275.80;92.60;;;;;;5080820;28;20365;-51
2023/12/03 07:25:49;;;;;;;39.00;21.20;;;-3275.80;92.70;;;;;;5080543;28;20092;-54
2023/12/03 07:28:16;;;;;;;36.72;19.92;;;-3275.90;92.80;;;;;;5072945;28;20481;-56
2023/12/03 07:30:43;;;;;;;33.38;20.48;;;-3276.00;92.80;;;;;;5072016;28;20526;-51
2023/12/03 07:33:10;;;;;;;37.50;20.23;;;-3276.10;93.00;;;;;;5075360;28;20523;-51
2023/12/03 07:35:38;;;;;;;34.40;20.10;;;-3276.10;92.90;;;;;;5093205;28;20089;-59
2023/12/03 07:38:05;;;;;;;35.30;19.83;;;-3276.10;93.00;;;;;;5087364;28;20081;-55
2023/12/03 07:40:31;;;;;;;36.22;19.38;;;-3276.20;93.10;;;;;;5085742;28;20456;-53
2023/12/03 07:42:58;;;;;;;34.42;20.60;;;-3276.30;93.20;;;;;;5092747;28;20020;-51
2023/12/03 07:45:26;;;;;;;37.50;21.90;;;-3276.30;93.10;;;;;;5078552;28;20027;-51
2023/12/03 07:47:53;;;;;;;41.20;23.08;;;-3276.30;93.10;;;;;;5074722;28;20031;-52
2023/12/03 07:50:20;;;;;;;38.53;23.15;;;-3276.40;93.20;;;;;;5085721;28;20020;-53
2023/12/03 07:52:47;;;;;;;34.05;20.20;;;-3276.50;93.30;;;;;;5107921;28;20035;-52
2023/12/03 07:55:16;;;;;;;33.28;20.58;;;-3276.50;93.30;;;;;;5095034;28;20031;-51
2023/12/03 07:57:44;;;;;;;33.28;17.80;;;-3276.50;93.30;;;;;;5091041;28;20042;-48
2023/12/03 08:00:11;;;;;;;29.27;16.75;;;-3276.60;93.50;;;;;;5093331;28;20089;-48
2023/12/03 08:02:38;;;;;;;30.95;17.20;;;-3276.60;93.60;;;;;;5093947;28;20058;-50
2023/12/03 08:05:04;;;;;;;30.10;15.98;;;-3276.70;93.70;;;;;;5091430;28;20082;-48
2023/12/03 08:07:31;;;;;;;31.77;16.25;;;-3276.70;93.60;;;;;;5092419;28;20031;-54
2023/12/03 08:09:58;;;;;;;26.95;14.77;;;-3276.70;93.70;;;;;;5093443;28;20036;-50
2023/12/03 08:12:26;;;;;;;26.90;15.10;;;0.00;93.80;;;;;;5097971;28;20024;-55
2023/12/03 08:14:55;;;;;;;27.15;16.13;;;0.00;93.90;;;;;;5090863;28;20028;-55
2023/12/03 08:17:21;;;;;;;26.90;16.48;;;0.00;93.90;;;;;;5098684;28;20028;-55
2023/12/03 08:19:49;;;;;;;26.02;14.93;;;0.00;94.00;;;;;;5093081;28;20540;-52
2023/12/03 08:22:17;;;;;;;25.48;15.43;;;0.00;93.90;;;;;;5076245;28;20120;-51
2023/12/03 08:24:44;;;;;;;30.30;15.10;;;0.00;93.90;;;;;;5083101;28;20583;-50
2023/12/03 08:27:15;;;;;;;29.77;14.63;;;0.10;93.90;;;;;;5095665;28;20060;-48
2023/12/03 08:29:46;;;;;;;28.90;15.90;;;0.20;94.00;;;;;;5094103;28;20020;-50
2023/12/03 08:32:14;;;;;;;24.85;14.45;;;0.20;93.80;;;;;;5084624;28;20028;-50
2023/12/03 08:34:42;;;;;;;24.67;13.90;;;0.20;93.80;;;;;;5093550;28;20453;-50
2023/12/03 08:37:10;;;;;;;23.50;13.35;;;0.30;93.80;;;;;;5096025;28;20024;-52
2023/12/03 08:39:35;;;;;;;31.67;14.60;;;0.20;93.60;;;;;;5093357;28;20035;-50
2023/12/03 08:42:04;;;;;;;31.70;15.23;;;0.30;93.60;;;;;;5096104;28;20020;-51
2023/12/03 08:44:33;;;;;;;25.67;15.05;;;0.30;93.40;;;;;;5094829;28;20024;-51
2023/12/03 08:47:00;;;;;;;24.95;13.75;;;0.20;93.30;;;;;;5093590;28;20030;-51
2023/12/03 08:49:34;;;;;;;25.90;13.95;;;0.30;93.30;;;;;;5085152;28;20023;-49
2023/12/03 08:52:02;;;;;;;23.40;12.75;;;0.30;93.10;;;;;;5094290;28;20028;-49
2023/12/03 08:54:31;;;;;;;21.50;12.18;;;0.30;93.00;;;;;;5094007;28;20469;-52
2023/12/03 08:57:00;;;;;;;21.70;13.35;;;0.40;93.10;;;;;;5089658;28;20468;-53
2023/12/03 08:59:26;;;;;;;28.17;14.38;;;0.40;92.90;;;;;;5084931;28;20032;-53
2023/12/03 09:01:53;;;;;;;29.05;17.80;;;0.40;92.80;;;;;;5092155;28;20032;-50
2023/12/03 09:04:23;;;;;;;26.35;15.13;;;0.40;92.60;;;;;;5095008;28;20032;-53
2023/12/03 09:06:51;;;;;;;33.05;18.33;;;0.40;92.50;;;;;;5099077;28;20027;-52
2023/12/03 09:09:17;;;;;;;30.50;17.00;;;0.40;92.50;;;;;;5105408;28;20063;-53
2023/12/03 09:11:45;;;;;;;26.65;15.15;;;0.40;92.60;;;;;;5099629;28;20028;-54
2023/12/03 09:14:11;;;;;;;33.88;17.77;;;0.50;92.50;;;;;;5096714;28;20095;-54
2023/12/03 09:16:41;;;;;;;29.83;16.00;;;0.50;92.40;;;;;;5077234;28;20113;-54
2023/12/03 09:19:08;;;;;;;28.77;17.67;;;0.60;92.40;;;;;;5079545;28;20067;-53
2023/12/03 09:21:35;;;;;;;34.35;18.25;;;0.60;92.40;;;;;;5075187;28;20031;-56
2023/12/03 09:24:01;;;;;;;24.90;15.68;;;0.60;92.30;;;;;;5072941;28;20476;-54
2023/12/03 09:26:27;;;;;;;27.50;14.77;;;0.60;92.30;;;;;;5056068;28;20024;-57
2023/12/03 09:28:54;;;;;;;27.58;15.52;;;0.70;92.30;;;;;;5073402;28;20089;-57
2023/12/03 09:31:20;;;;;;;24.38;14.38;;;0.70;92.30;;;;;;5071826;28;20019;-58
2023/12/03 09:33:47;;;;;;;26.15;15.85;;;0.70;92.20;;;;;;5075188;28;20450;-57
2023/12/03 09:36:15;;;;;;;24.00;14.30;;;0.70;92.30;;;;;;5071050;28;20043;-58
2023/12/03 09:38:41;;;;;;;26.02;14.25;;;0.80;92.40;;;;;;5072009;28;20103;-58
2023/12/03 09:41:13;;;;;;;23.80;13.48;;;0.80;92.40;;;;;;5074490;28;20162;-58
2023/12/03 09:43:47;;;;;;;24.52;14.43;;;0.80;92.30;;;;;;5071769;28;20074;-59
2023/12/03 09:46:16;;;;;;;30.27;16.13;;;0.90;92.50;;;;;;5074125;28;20035;-59
2023/12/03 09:48:43;;;;;;;24.90;15.00;;;0.90;92.40;;;;;;5063911;28;20032;-59
2023/12/03 09:51:24;;;;;;;24.67;14.10;;;0.90;92.50;;;;;;5073407;28;20066;-59
2023/12/03 09:54:06;;;;;;;25.63;15.20;;;0.90;92.40;;;;;;5083398;28;20129;-59
2023/12/03 09:56:34;;;;;;;31.08;17.40;;;0.90;92.50;;;;;;5074832;28;20052;-58
2023/12/03 09:59:02;;;;;;;27.88;16.30;;;1.00;92.50;;;;;;5039934;28;20112;-57
2023/12/03 10:01:34;;;;;;;29.17;18.38;;;1.10;92.60;;;;;;5074400;28;20032;-58
2023/12/03 10:04:01;;;;;;;28.48;16.80;;;1.10;92.50;;;;;;5061816;28;20047;-58
2023/12/03 10:06:30;;;;;;;27.92;16.58;;;1.20;92.60;;;;;;5071194;28;20020;-57
2023/12/03 10:09:06;;;;;;;23.20;13.70;;;1.20;92.50;;;;;;5062767;28;20036;-57
2023/12/03 10:11:39;;;;;;;24.58;12.40;;;1.20;92.40;;;;;;5073132;28;20047;-54
2023/12/03 10:14:12;;;;;;;24.85;13.90;;;1.20;92.60;;;;;;5062665;28;20480;-52
2023/12/03 10:16:39;;;;;;;25.73;14.50;;;1.20;92.40;;;;;;5040427;28;20064;-51
2023/12/03 10:19:06;;;;;;;30.05;17.42;;;1.20;92.40;;;;;;5066905;28;20095;-51
2023/12/03 10:21:34;;;;;;;26.33;16.20;;;1.20;92.30;;;;;;5097347;28;20028;-56
2023/12/03 10:24:03;;;;;;;21.85;12.85;;;1.20;92.30;;;;;;5080688;28;20432;-51
2023/12/03 10:26:29;;;;;;;24.30;12.55;;;1.20;92.10;;;;;;5081848;28;20039;-48
2023/12/03 10:28:56;;;;;;;21.67;13.43;;;1.20;92.30;;;;;;5078194;28;20036;-52
2023/12/03 10:31:25;;;;;;;24.40;14.35;;;1.20;92.20;;;;;;5091404;28;20049;-49
2023/12/03 10:33:53;;;;;;;16.95;11.07;;;1.20;92.30;;;;;;5074276;28;20668;-52
2023/12/03 10:36:20;;;;;;;19.85;11.75;;;1.20;92.20;;;;;;5076412;28;20543;-48
2023/12/03 10:38:47;;;;;;;21.65;12.07;;;1.20;92.20;;;;;;5095003;28;20116;-50
2023/12/03 10:41:19;;;;;;;17.67;11.95;;;1.20;92.20;;;;;;5089478;28;20616;-52
2023/12/03 10:43:47;;;;;;;23.75;13.05;;;1.20;92.20;;;;;;5092725;28;20032;-47
2023/12/03 10:46:16;;;;;;;25.70;11.68;;;1.20;92.20;;;;;;5092179;28;20028;-50
2023/12/03 10:48:44;;;;;;;18.75;10.55;;;1.20;92.30;;;;;;5099544;28;21212;-47
2023/12/03 10:51:12;;;;;;;18.05;10.80;;;1.30;92.40;;;;;;5099239;28;20024;-53
2023/12/03 10:53:39;;;;;;;17.70;11.77;;;1.30;92.30;;;;;;5091370;28;20024;-50
2023/12/03 10:56:08;;;;;;;22.13;11.77;;;1.20;92.30;;;;;;5101212;28;20020;-48
2023/12/03 10:58:38;;;;;;;17.17;10.43;;;1.30;92.40;;;;;;5088519;28;20063;-50
2023/12/03 11:01:16;;;;;;;19.52;11.73;;;1.20;92.40;;;;;;5067501;28;20048;-50
2023/12/03 11:03:59;;;;;;;20.13;10.52;;;1.20;92.40;;;;;;5082630;28;20016;-53
2023/12/03 11:06:26;;;;;;;21.60;13.93;;;1.20;92.50;;;;;;5072662;28;20497;-54
2023/12/03 11:08:53;;;;;;;21.85;12.07;;;1.20;92.50;;;;;;5055761;28;20053;-55
2023/12/03 11:11:21;;;;;;;15.55;9.75;;;1.20;92.60;;;;;;5062533;28;20090;-55
2023/12/03 11:13:56;;;;;;;20.98;12.25;;;1.20;92.70;;;;;;5099342;28;20028;-55
2023/12/03 11:16:23;;;;;;;20.27;11.15;;;1.20;92.60;;;;;;5066718;28;20027;-55
2023/12/03 11:19:01;;;;;;;17.92;9.65;;;1.30;92.70;;;;;;5081438;28;20107;-54
2023/12/03 11:21:49;;;;;;;15.95;9.45;;;1.20;92.70;;;;;;5106639;28;20034;-56
2023/12/03 11:24:55;;;;;;;18.10;10.38;;;1.20;92.70;;;;;;5077365;28;20032;-53
2023/12/03 11:27:31;;;;;;;17.50;9.32;;;1.30;92.80;;;;;;5081586;28;20039;-56
2023/12/03 11:30:04;;;;;;;16.85;8.90;;;1.40;92.90;;;;;;5096774;28;20062;-57
2023/12/03 11:32:33;;;;;;;19.98;10.68;;;1.50;93.00;;;;;;5098451;28;20039;-57
2023/12/03 11:35:15;;;;;;;17.25;8.77;;;1.40;92.80;;;;;;5103203;28;20040;-57
2023/12/03 11:37:46;;;;;;;15.90;8.75;;;1.40;92.70;;;;;;5100381;28;20475;-57
2023/12/03 11:40:16;;;;;;;17.15;8.93;;;1.50;92.70;;;;;;5099915;28;20138;-52
2023/12/03 11:42:46;;;;;;;19.05;9.40;;;1.50;92.70;;;;;;5082822;28;20039;-56
2023/12/03 11:45:25;;;;;;;17.85;8.82;;;1.50;92.70;;;;;;5100006;28;20031;-56
2023/12/03 11:48:08;;;;;;;15.45;9.27;;;1.60;92.70;;;;;;5079795;28;20028;-57
2023/12/03 11:50:36;;;;;;;18.15;9.82;;;1.50;92.40;;;;;;5090550;28;20020;-55
2023/12/03 11:53:11;;;;;;;21.55;10.18;;;1.50;92.60;;;;;;5073771;28;20028;-54
2023/12/03 11:55:42;;;;;;;16.60;9.45;;;1.60;92.60;;;;;;5072621;28;20028;-55
2023/12/03 11:58:11;;;;;;;21.67;9.75;;;1.50;92.50;;;;;;5073787;28;20048;-54
2023/12/03 12:00:45;;;;;;;18.55;9.73;;;1.50;92.40;;;;;;5061896;28;20093;-55
2023/12/03 12:03:11;;;;;;;16.40;9.13;;;1.50;92.40;;;;;;5075701;28;20044;-55
2023/12/03 12:05:49;;;;;;;17.35;9.07;;;1.50;92.50;;;;;;5077987;28;20032;-53
2023/12/03 12:08:35;;;;;;;15.30;9.82;;;1.50;92.40;;;;;;5090685;28;20087;-56
2023/12/03 12:11:01;;;;;;;18.38;8.45;;;1.50;92.50;;;;;;5082842;28;20283;-56
2023/12/03 12:13:29;;;;;;;17.67;10.43;;;1.50;92.50;;;;;;5084510;28;20024;-53
2023/12/03 12:15:56;;;;;;;21.05;9.95;;;1.50;92.60;;;;;;5086562;28;20029;-56
2023/12/03 12:18:26;;;;;;;21.70;11.10;;;1.50;92.70;;;;;;5067404;28;20052;-56
2023/12/03 12:21:10;;;;;;;21.02;10.15;;;1.50;92.60;;;;;;5043369;28;20029;-55
2023/12/03 12:23:42;;;;;;;20.40;10.65;;;1.50;92.60;;;;;;5068544;28;20048;-52
2023/12/03 12:26:10;;;;;;;21.77;11.07;;;1.50;92.60;;;;;;5056139;28;20032;-57
2023/12/03 12:28:36;;;;;;;19.85;10.05;;;1.60;92.60;;;;;;5068208;28;20139;-53
2023/12/03 12:31:05;;;;;;;19.77;10.70;;;1.50;92.60;;;;;;5058696;28;20096;-55